Time;durP1;ratioP1;P1;durP2;ratioP2;P2;SDS_P1;SDS_P2;PMS_P1;PMS_P2;Temp;Humidity;BMP_temperature;BMP_pressure;BME280_temperature;BME280_humidity;BME280_pressure;Samples;Min_cycle;Max_cycle;Signal;HPM_P1;HPM_P2
2023/03/10 00:00:51;;;;;;;5.90;1.70;;;10.70;99.90;;;;;;5145939;27;20031;-70
2023/03/10 00:03:16;;;;;;;3.10;1.10;;;10.70;99.90;;;;;;5150854;27;20084;-70
2023/03/10 00:05:42;;;;;;;6.68;1.63;;;10.70;99.90;;;;;;5145265;27;20496;-71
2023/03/10 00:08:08;;;;;;;4.05;1.40;;;10.70;99.90;;;;;;5153818;27;20033;-70
2023/03/10 00:10:33;;;;;;;4.22;1.60;;;10.70;99.90;;;;;;5144563;27;20054;-70
2023/03/10 00:12:59;;;;;;;6.18;1.40;;;10.70;99.90;;;;;;5148545;27;20039;-70
2023/03/10 00:15:25;;;;;;;5.85;1.40;;;10.70;99.90;;;;;;5142623;27;20065;-70
2023/03/10 00:17:54;;;;;;;4.25;1.58;;;10.60;99.90;;;;;;5153575;27;20035;-70
2023/03/10 00:20:21;;;;;;;4.03;1.35;;;10.50;99.90;;;;;;5152384;27;20045;-71
2023/03/10 00:22:47;;;;;;;4.30;1.42;;;10.50;99.90;;;;;;5148111;27;20027;-71
2023/03/10 00:25:14;;;;;;;5.55;1.33;;;10.50;99.90;;;;;;5142118;27;20114;-71
2023/03/10 00:27:40;;;;;;;5.38;1.67;;;10.40;99.90;;;;;;5149069;27;20133;-71
2023/03/10 00:30:06;;;;;;;5.15;1.45;;;10.30;99.90;;;;;;5152320;27;20505;-71
2023/03/10 00:32:34;;;;;;;5.60;1.70;;;10.30;99.90;;;;;;5143943;27;20402;-71
2023/03/10 00:35:00;;;;;;;4.13;1.35;;;10.30;99.90;;;;;;5148473;27;20039;-71
2023/03/10 00:37:26;;;;;;;5.00;1.85;;;10.30;99.90;;;;;;5149815;27;20041;-71
2023/03/10 00:39:52;;;;;;;3.45;1.48;;;10.30;99.90;;;;;;5146312;27;20469;-71
2023/03/10 00:42:19;;;;;;;5.80;1.40;;;10.30;99.90;;;;;;5148938;27;20023;-71
2023/03/10 00:44:44;;;;;;;3.30;1.40;;;10.30;99.90;;;;;;5146198;27;20038;-72
2023/03/10 00:47:10;;;;;;;4.63;2.15;;;10.30;99.90;;;;;;5154328;27;20404;-70
2023/03/10 00:49:36;;;;;;;4.18;1.15;;;10.30;99.90;;;;;;5153301;27;20031;-70
2023/03/10 00:52:01;;;;;;;2.90;1.35;;;10.30;99.90;;;;;;5153918;27;20027;-70
2023/03/10 00:54:27;;;;;;;7.22;1.98;;;10.30;99.90;;;;;;5149240;27;20051;-71
2023/03/10 00:56:52;;;;;;;5.85;1.15;;;10.30;99.90;;;;;;5148688;27;20022;-71
2023/03/10 00:59:18;;;;;;;4.55;0.98;;;10.30;99.90;;;;;;5153416;27;20035;-71
2023/03/10 01:01:44;;;;;;;2.47;0.93;;;10.30;99.90;;;;;;5153769;27;20066;-71
2023/03/10 01:04:14;;;;;;;2.05;0.90;;;10.20;99.90;;;;;;5154345;27;20019;-71
2023/03/10 01:06:40;;;;;;;;;;;10.20;99.90;;;;;;5145523;27;20540;-71
2023/03/10 01:09:05;;;;;;;2.40;0.90;;;10.20;99.90;;;;;;5154039;27;20041;-71
2023/03/10 01:11:32;;;;;;;4.57;1.20;;;10.30;99.90;;;;;;5152602;27;20022;-71
2023/03/10 01:14:01;;;;;;;3.70;0.85;;;10.20;99.90;;;;;;5154148;27;20034;-71
2023/03/10 01:16:27;;;;;;;3.17;0.82;;;10.20;99.90;;;;;;5143734;27;20034;-70
2023/03/10 01:18:54;;;;;;;3.75;0.90;;;10.10;99.90;;;;;;5153914;27;20023;-71
2023/03/10 01:21:22;;;;;;;1.38;0.88;;;10.10;99.90;;;;;;5152491;27;20492;-71
2023/03/10 01:23:48;;;;;;;6.38;1.27;;;10.10;99.90;;;;;;5152421;27;20465;-71
2023/03/10 01:26:14;;;;;;;2.15;0.95;;;10.30;99.90;;;;;;5147101;27;20033;-71
2023/03/10 01:28:39;;;;;;;4.22;1.10;;;10.20;99.90;;;;;;5147310;27;20030;-71
2023/03/10 01:31:06;;;;;;;6.78;1.25;;;10.10;99.90;;;;;;5153030;27;20033;-71
2023/03/10 01:33:34;;;;;;;4.90;0.98;;;10.00;99.90;;;;;;5152787;27;20027;-71
2023/03/10 01:36:00;;;;;;;4.32;1.20;;;10.00;99.90;;;;;;5152930;27;20023;-70
2023/03/10 01:38:26;;;;;;;2.47;1.40;;;9.90;99.90;;;;;;5143418;27;20030;-70
2023/03/10 01:40:52;;;;;;;5.05;1.40;;;9.90;99.90;;;;;;5139296;27;20433;-70
2023/03/10 01:43:31;;;;;;;3.28;1.23;;;10.00;99.90;;;;;;5143296;27;20121;-70
2023/03/10 01:46:00;;;;;;;4.00;1.10;;;9.90;99.90;;;;;;5142824;27;20053;-71
2023/03/10 01:48:29;;;;;;;4.20;1.05;;;9.90;99.90;;;;;;5152497;27;20110;-71
2023/03/10 01:50:56;;;;;;;4.55;1.00;;;9.90;99.90;;;;;;5152730;27;20392;-70
2023/03/10 01:53:24;;;;;;;3.28;1.33;;;9.90;99.90;;;;;;5152422;27;20082;-71
2023/03/10 01:56:01;;;;;;;4.15;1.10;;;10.10;99.90;;;;;;5152599;27;20137;-70
2023/03/10 01:58:33;;;;;;;2.88;0.95;;;10.20;99.90;;;;;;5152844;27;20057;-70
2023/03/10 02:00:59;;;;;;;3.28;1.08;;;10.30;99.90;;;;;;5152627;27;20039;-71
2023/03/10 02:03:33;;;;;;;2.90;1.20;;;10.30;99.90;;;;;;5151911;27;20035;-70
2023/03/10 02:06:19;;;;;;;2.22;1.00;;;10.40;99.90;;;;;;5151381;27;20065;-70
2023/03/10 02:08:50;;;;;;;3.55;1.10;;;10.40;99.90;;;;;;5145449;27;20461;-70
2023/03/10 02:11:17;;;;;;;4.35;1.08;;;10.40;99.90;;;;;;5142500;27;20023;-70
2023/03/10 02:13:42;;;;;;;4.20;1.30;;;10.40;99.90;;;;;;5151147;27;20027;-71
2023/03/10 02:16:08;;;;;;;2.00;1.23;;;10.40;99.90;;;;;;5152212;27;20353;-70
2023/03/10 02:18:34;;;;;;;6.10;1.00;;;10.30;99.90;;;;;;5154455;27;20034;-70
2023/03/10 02:21:03;;;;;;;3.17;1.15;;;10.40;99.90;;;;;;5152741;27;20031;-71
2023/03/10 02:23:40;;;;;;;3.00;0.98;;;10.40;99.90;;;;;;5149049;27;20496;-71
2023/03/10 02:26:35;;;;;;;2.20;0.85;;;10.40;99.90;;;;;;5152178;27;20067;-70
2023/03/10 02:29:04;;;;;;;2.13;1.13;;;10.40;99.90;;;;;;5106411;27;20049;-70
2023/03/10 02:31:31;;;;;;;2.77;0.80;;;10.50;99.90;;;;;;5149273;27;20027;-71
2023/03/10 02:33:57;;;;;;;1.02;0.68;;;10.40;99.90;;;;;;5152727;27;20037;-71
2023/03/10 02:36:23;;;;;;;3.42;1.02;;;10.40;99.90;;;;;;5151410;27;20026;-71
2023/03/10 02:38:49;;;;;;;1.73;0.75;;;10.40;99.90;;;;;;5152504;27;20086;-71
2023/03/10 02:41:25;;;;;;;1.17;0.65;;;10.30;99.90;;;;;;5145837;27;20389;-71
2023/03/10 02:43:54;;;;;;;3.90;0.75;;;10.40;99.90;;;;;;5150726;27;20056;-71
2023/03/10 02:46:20;;;;;;;2.72;0.50;;;10.30;99.90;;;;;;5150878;27;20046;-70
2023/03/10 02:48:46;;;;;;;2.47;0.70;;;10.40;99.90;;;;;;5152194;27;20418;-70
2023/03/10 02:51:17;;;;;;;4.18;0.70;;;10.30;99.90;;;;;;5151778;27;20034;-71
2023/03/10 02:53:43;;;;;;;3.17;0.80;;;10.30;99.90;;;;;;5152189;27;20027;-70
2023/03/10 02:56:09;;;;;;;3.38;1.25;;;10.30;99.90;;;;;;5152616;27;20037;-72
2023/03/10 02:58:35;;;;;;;2.05;1.30;;;10.20;99.90;;;;;;5152025;27;20103;-72
2023/03/10 03:01:01;;;;;;;2.80;0.77;;;10.10;99.90;;;;;;5133360;27;20091;-70
2023/03/10 03:03:26;;;;;;;2.45;0.57;;;10.10;99.90;;;;;;5143963;27;20427;-71
2023/03/10 03:05:52;;;;;;;3.28;1.33;;;10.00;99.90;;;;;;5143882;27;20030;-70
2023/03/10 03:08:18;;;;;;;2.78;0.80;;;10.00;99.90;;;;;;5152210;27;20023;-71
2023/03/10 03:10:44;;;;;;;1.95;0.60;;;9.80;99.90;;;;;;5151023;27;20528;-72
2023/03/10 03:13:10;;;;;;;1.90;0.70;;;9.80;99.90;;;;;;5152453;27;20103;-71
2023/03/10 03:15:36;;;;;;;3.08;0.68;;;9.80;99.90;;;;;;5151098;27;20058;-71
2023/03/10 03:18:03;;;;;;;3.03;0.65;;;9.80;99.90;;;;;;5152375;27;20031;-71
2023/03/10 03:20:30;;;;;;;1.10;0.52;;;9.80;99.90;;;;;;5152710;27;20023;-71
2023/03/10 03:22:59;;;;;;;3.15;0.60;;;9.80;99.90;;;;;;5156460;27;20026;-70
2023/03/10 03:25:27;;;;;;;2.55;0.63;;;9.80;99.90;;;;;;5154784;27;20066;-71
2023/03/10 03:27:53;;;;;;;2.80;0.50;;;9.80;99.90;;;;;;5156138;27;20461;-69
2023/03/10 03:30:23;;;;;;;1.40;0.52;;;9.70;99.90;;;;;;5155111;27;20061;-71
2023/03/10 03:32:51;;;;;;;2.92;0.93;;;9.70;99.90;;;;;;5155577;27;20038;-70
2023/03/10 03:35:29;;;;;;;2.75;1.00;;;9.60;99.90;;;;;;5155101;27;20433;-70
2023/03/10 03:37:55;;;;;;;1.45;0.57;;;9.60;99.90;;;;;;5153409;27;20022;-69
2023/03/10 03:40:24;;;;;;;3.13;0.60;;;9.60;99.90;;;;;;5154550;27;20031;-70
2023/03/10 03:42:51;;;;;;;2.38;0.40;;;9.60;99.90;;;;;;5156111;27;20038;-69
2023/03/10 03:45:20;;;;;;;2.05;0.88;;;9.50;99.90;;;;;;5154334;27;20051;-70
2023/03/10 03:47:46;;;;;;;2.85;0.68;;;9.50;99.90;;;;;;5155344;27;20023;-70
2023/03/10 03:50:13;;;;;;;1.30;0.40;;;9.40;99.90;;;;;;5155587;27;20027;-71
2023/03/10 03:52:40;;;;;;;0.77;0.50;;;9.30;99.90;;;;;;5155075;27;20847;-71
2023/03/10 03:55:07;;;;;;;2.28;0.45;;;9.30;99.90;;;;;;5154902;27;20068;-71
2023/03/10 03:57:33;;;;;;;0.70;0.38;;;9.20;99.90;;;;;;5154777;27;20042;-71
2023/03/10 03:59:58;;;;;;;1.85;0.30;;;9.20;99.90;;;;;;5155311;27;20031;-71
2023/03/10 04:02:24;;;;;;;1.02;0.30;;;9.20;99.90;;;;;;5154495;27;20492;-71
2023/03/10 04:04:52;;;;;;;2.38;0.40;;;9.20;99.90;;;;;;5154492;27;20380;-71
2023/03/10 04:07:18;;;;;;;1.55;0.40;;;9.20;99.90;;;;;;5155125;27;20034;-71
2023/03/10 04:09:43;;;;;;;2.42;0.60;;;9.20;99.90;;;;;;5154336;27;20030;-71
2023/03/10 04:12:09;;;;;;;2.55;1.08;;;9.20;99.90;;;;;;5136510;27;20500;-70
2023/03/10 04:14:36;;;;;;;3.00;1.77;;;9.20;99.90;;;;;;5153937;27;20026;-70
2023/03/10 04:17:02;;;;;;;2.92;1.17;;;9.20;99.90;;;;;;5155169;27;20030;-69
2023/03/10 04:19:28;;;;;;;1.90;1.20;;;9.30;99.90;;;;;;5153823;27;20076;-70
2023/03/10 04:21:54;;;;;;;0.90;0.70;;;9.30;99.90;;;;;;5155361;27;20385;-70
2023/03/10 04:24:21;;;;;;;2.25;0.47;;;9.30;99.90;;;;;;5154110;27;20407;-70
2023/03/10 04:26:47;;;;;;;0.98;0.30;;;9.30;99.90;;;;;;5154841;27;20062;-71
2023/03/10 04:29:12;;;;;;;1.65;0.20;;;9.30;99.90;;;;;;5155238;27;20472;-71
2023/03/10 04:31:38;;;;;;;0.90;0.30;;;9.30;99.90;;;;;;5152785;27;20147;-70
2023/03/10 04:34:04;;;;;;;2.63;0.47;;;9.30;99.90;;;;;;5154923;27;20038;-71
2023/03/10 04:36:29;;;;;;;1.95;0.50;;;9.30;99.90;;;;;;5153379;27;20052;-70
2023/03/10 04:38:55;;;;;;;0.47;0.40;;;9.20;99.90;;;;;;5154929;27;20026;-70
2023/03/10 04:41:21;;;;;;;0.50;0.22;;;9.20;99.90;;;;;;5146536;27;20465;-71
2023/03/10 04:43:47;;;;;;;0.82;0.40;;;9.10;99.90;;;;;;5154552;27;20480;-71
2023/03/10 04:46:12;;;;;;;1.15;0.20;;;9.10;99.90;;;;;;5153752;27;20597;-71
2023/03/10 04:48:38;;;;;;;1.63;0.40;;;9.20;99.90;;;;;;5153863;27;20791;-71
2023/03/10 04:51:10;;;;;;;0.80;0.20;;;9.10;99.90;;;;;;5154082;27;20038;-70
2023/03/10 04:53:37;;;;;;;0.88;0.25;;;9.10;99.90;;;;;;5153656;27;20118;-71
2023/03/10 04:56:05;;;;;;;1.58;0.40;;;9.20;99.90;;;;;;5153955;27;20034;-70
2023/03/10 04:58:31;;;;;;;1.45;0.45;;;9.20;99.90;;;;;;5153717;27;20536;-70
2023/03/10 05:00:57;;;;;;;2.25;0.63;;;9.20;99.90;;;;;;5153608;27;20035;-70
2023/03/10 05:03:26;;;;;;;4.38;0.40;;;9.20;99.90;;;;;;5153399;27;20053;-70
2023/03/10 05:05:51;;;;;;;3.47;0.63;;;9.10;99.90;;;;;;5153885;27;20026;-70
2023/03/10 05:08:17;;;;;;;0.70;0.40;;;9.10;99.90;;;;;;5153890;27;20388;-70
2023/03/10 05:10:43;;;;;;;0.65;0.22;;;9.00;99.90;;;;;;5153181;27;20031;-70
2023/03/10 05:13:11;;;;;;;2.28;0.55;;;9.00;99.90;;;;;;5153719;27;20087;-70
2023/03/10 05:15:40;;;;;;;1.40;0.40;;;8.90;99.90;;;;;;5152517;27;20023;-69
2023/03/10 05:18:07;;;;;;;0.65;0.52;;;8.90;99.90;;;;;;5154063;27;20494;-69
2023/03/10 05:20:33;;;;;;;2.10;0.52;;;8.70;99.90;;;;;;5152559;27;20026;-69
2023/03/10 05:22:58;;;;;;;0.70;0.70;;;8.70;99.90;;;;;;5154189;27;20122;-69
2023/03/10 05:25:24;;;;;;;2.17;0.70;;;8.50;99.90;;;;;;5152135;27;20030;-70
2023/03/10 05:27:49;;;;;;;1.73;0.60;;;8.50;99.90;;;;;;5153630;27;20148;-70
2023/03/10 05:30:15;;;;;;;1.77;0.55;;;8.30;99.90;;;;;;5153030;27;20392;-69
2023/03/10 05:32:43;;;;;;;1.50;0.57;;;8.30;99.90;;;;;;5152862;27;20022;-69
2023/03/10 05:35:09;;;;;;;2.95;0.55;;;8.20;99.90;;;;;;5153236;27;20529;-69
2023/03/10 05:37:38;;;;;;;3.08;0.45;;;8.30;99.90;;;;;;5152918;27;20018;-70
2023/03/10 05:40:14;;;;;;;3.13;0.60;;;8.30;99.90;;;;;;5153180;27;20114;-70
2023/03/10 05:42:40;;;;;;;0.98;0.40;;;8.30;99.90;;;;;;5152863;27;20053;-70
2023/03/10 05:45:07;;;;;;;3.97;0.60;;;8.30;99.90;;;;;;5152369;27;20488;-70
2023/03/10 05:47:33;;;;;;;3.13;0.55;;;8.30;99.90;;;;;;5152663;27;20087;-70
2023/03/10 05:49:59;;;;;;;3.45;0.70;;;8.30;99.90;;;;;;5152917;27;20177;-70
2023/03/10 05:52:26;;;;;;;3.90;0.70;;;8.30;99.90;;;;;;5152596;27;20083;-71
2023/03/10 05:54:51;;;;;;;2.88;0.90;;;8.30;99.90;;;;;;5151994;27;20042;-71
2023/03/10 05:57:17;;;;;;;2.13;0.68;;;8.30;99.90;;;;;;5153071;27;20381;-71
2023/03/10 05:59:42;;;;;;;3.28;1.00;;;8.40;99.90;;;;;;5152177;27;20037;-71
2023/03/10 06:02:08;;;;;;;2.47;0.85;;;8.40;99.90;;;;;;5152983;27;20042;-70
2023/03/10 06:04:34;;;;;;;3.22;0.75;;;8.50;99.90;;;;;;5151796;27;20034;-71
2023/03/10 06:07:00;;;;;;;1.58;0.80;;;8.60;99.90;;;;;;5153056;27;20800;-70
2023/03/10 06:09:29;;;;;;;3.85;0.93;;;8.60;99.90;;;;;;5151583;27;20034;-71
2023/03/10 06:11:55;;;;;;;3.55;0.90;;;8.80;99.90;;;;;;5152714;27;20078;-69
2023/03/10 06:14:21;;;;;;;1.77;0.60;;;8.90;99.90;;;;;;5152086;27;20361;-70
2023/03/10 06:16:50;;;;;;;3.00;0.80;;;8.90;99.90;;;;;;5143029;27;20037;-70
2023/03/10 06:19:19;;;;;;;2.65;0.75;;;9.00;99.90;;;;;;5145078;27;20160;-70
2023/03/10 06:21:45;;;;;;;2.33;0.73;;;9.10;99.90;;;;;;5138936;27;20090;-70
2023/03/10 06:24:14;;;;;;;2.17;0.50;;;9.10;99.90;;;;;;5147230;27;20547;-69
2023/03/10 06:26:40;;;;;;;0.40;0.40;;;9.10;99.90;;;;;;5147481;27;20031;-70
2023/03/10 06:29:05;;;;;;;1.17;0.60;;;9.00;99.90;;;;;;5147576;27;20443;-70
2023/03/10 06:31:32;;;;;;;2.80;0.60;;;8.90;99.90;;;;;;5144990;27;20052;-70
2023/03/10 06:33:58;;;;;;;1.55;0.50;;;8.80;99.90;;;;;;5151936;27;20034;-69
2023/03/10 06:36:25;;;;;;;2.90;0.85;;;8.60;99.90;;;;;;5146420;27;20035;-67
2023/03/10 06:38:51;;;;;;;4.18;0.88;;;8.50;99.90;;;;;;5151746;27;20057;-68
2023/03/10 06:41:18;;;;;;;1.63;0.40;;;8.40;99.90;;;;;;5149339;27;20031;-69
2023/03/10 06:43:44;;;;;;;1.42;0.50;;;8.20;99.90;;;;;;5151813;27;20039;-67
2023/03/10 06:46:11;;;;;;;2.22;0.50;;;8.10;99.90;;;;;;5133288;27;20123;-70
2023/03/10 06:48:37;;;;;;;2.22;0.50;;;8.00;99.90;;;;;;5130201;27;20024;-70
2023/03/10 06:51:09;;;;;;;1.45;0.35;;;7.90;99.90;;;;;;5126958;27;20469;-70
2023/03/10 06:53:35;;;;;;;1.90;0.57;;;7.90;99.90;;;;;;5130563;28;20027;-69
2023/03/10 06:56:06;;;;;;;2.90;0.55;;;7.90;99.90;;;;;;5116619;28;20098;-69
2023/03/10 06:58:34;;;;;;;1.50;0.63;;;7.90;99.90;;;;;;5129362;28;20058;-71
2023/03/10 07:01:00;;;;;;;0.52;0.32;;;7.90;99.90;;;;;;5122229;28;20059;-69
2023/03/10 07:03:27;;;;;;;2.33;0.50;;;7.90;99.90;;;;;;5127851;28;20058;-69
2023/03/10 07:05:58;;;;;;;3.58;0.50;;;8.00;99.90;;;;;;5133485;28;20557;-68
2023/03/10 07:08:25;;;;;;;1.33;0.50;;;8.10;99.90;;;;;;5130945;28;20035;-68
2023/03/10 07:10:50;;;;;;;1.10;0.40;;;8.20;99.90;;;;;;5125199;28;20061;-69
2023/03/10 07:13:16;;;;;;;2.58;0.50;;;8.30;99.90;;;;;;5131264;28;20031;-69
2023/03/10 07:15:43;;;;;;;1.05;0.47;;;8.40;99.90;;;;;;5124725;28;20034;-70
2023/03/10 07:18:09;;;;;;;1.02;0.40;;;8.40;99.90;;;;;;5131195;28;20070;-68
2023/03/10 07:20:38;;;;;;;0.60;0.50;;;8.40;99.90;;;;;;5128007;28;20042;-68
2023/03/10 07:23:04;;;;;;;0.80;0.40;;;8.50;99.90;;;;;;5119796;28;20371;-70
2023/03/10 07:25:30;;;;;;;0.98;0.52;;;8.60;99.90;;;;;;5119178;28;20047;-68
2023/03/10 07:27:56;;;;;;;1.63;0.40;;;8.60;99.90;;;;;;5131325;28;20087;-69
2023/03/10 07:30:21;;;;;;;1.40;0.47;;;8.60;99.90;;;;;;5129975;28;20469;-69
2023/03/10 07:32:51;;;;;;;0.63;0.40;;;8.70;99.90;;;;;;5122418;28;20406;-69
2023/03/10 07:35:17;;;;;;;0.50;0.50;;;8.70;99.90;;;;;;5116513;28;20054;-70
2023/03/10 07:37:43;;;;;;;1.50;0.70;;;8.80;99.90;;;;;;5118913;28;20035;-69
2023/03/10 07:40:09;;;;;;;1.33;0.63;;;8.90;99.90;;;;;;5120780;28;20027;-68
2023/03/10 07:42:34;;;;;;;0.60;0.40;;;8.90;99.90;;;;;;5122373;28;20441;-68
2023/03/10 07:45:00;;;;;;;1.35;0.52;;;9.00;99.90;;;;;;5123702;27;20134;-68
2023/03/10 07:47:26;;;;;;;1.17;0.50;;;9.00;99.90;;;;;;5128876;28;20023;-68
2023/03/10 07:49:51;;;;;;;1.10;0.65;;;9.10;99.90;;;;;;5118801;28;20027;-68
2023/03/10 07:52:18;;;;;;;4.40;0.75;;;9.30;99.90;;;;;;5122241;28;20130;-69
2023/03/10 07:54:44;;;;;;;1.45;0.50;;;9.40;99.90;;;;;;5121247;28;20028;-68
2023/03/10 07:57:11;;;;;;;5.22;0.90;;;9.50;99.90;;;;;;5125753;28;20424;-68
2023/03/10 07:59:37;;;;;;;2.03;0.77;;;9.50;99.90;;;;;;5127613;28;20271;-68
2023/03/10 08:02:03;;;;;;;1.48;0.60;;;9.50;99.90;;;;;;5128627;28;20497;-68
2023/03/10 08:04:29;;;;;;;2.47;0.70;;;9.70;99.90;;;;;;5121518;28;20519;-68
2023/03/10 08:06:54;;;;;;;5.07;0.70;;;9.70;99.90;;;;;;5131396;27;20028;-68
2023/03/10 08:09:20;;;;;;;2.10;0.98;;;9.60;99.90;;;;;;5131154;27;20058;-69
2023/03/10 08:11:46;;;;;;;4.25;0.80;;;9.40;99.90;;;;;;5120518;27;20019;-68
2023/03/10 08:14:11;;;;;;;2.63;0.60;;;9.20;99.90;;;;;;5126666;27;20060;-68
2023/03/10 08:16:37;;;;;;;2.22;0.70;;;9.00;99.90;;;;;;5121738;27;20062;-68
2023/03/10 08:19:02;;;;;;;6.40;0.82;;;8.80;99.90;;;;;;5124556;27;20454;-68
2023/03/10 08:21:28;;;;;;;2.78;0.50;;;8.60;99.90;;;;;;5127896;27;20031;-68
2023/03/10 08:23:54;;;;;;;2.40;0.60;;;8.50;99.90;;;;;;5131195;27;20034;-68
2023/03/10 08:26:20;;;;;;;1.20;0.30;;;8.40;99.90;;;;;;5122052;27;20048;-69
2023/03/10 08:28:46;;;;;;;1.95;0.32;;;8.30;99.90;;;;;;5131552;27;20031;-67
2023/03/10 08:31:15;;;;;;;3.30;0.93;;;8.20;99.90;;;;;;5127034;27;20121;-67
2023/03/10 08:33:41;;;;;;;0.65;0.30;;;8.20;99.90;;;;;;5120033;27;20104;-67
2023/03/10 08:36:19;;;;;;;4.45;0.73;;;8.20;99.90;;;;;;5132772;27;20030;-67
2023/03/10 08:38:45;;;;;;;2.38;0.52;;;8.20;99.90;;;;;;5133139;27;20023;-67
2023/03/10 08:41:15;;;;;;;1.23;0.40;;;8.20;99.90;;;;;;5127429;27;20030;-67
2023/03/10 08:43:41;;;;;;;1.00;0.60;;;8.10;99.90;;;;;;5128116;27;20042;-68
2023/03/10 08:46:08;;;;;;;2.05;0.60;;;8.10;99.90;;;;;;5144780;27;20047;-68
2023/03/10 08:48:34;;;;;;;2.53;0.68;;;8.10;99.90;;;;;;5149998;27;20034;-68
2023/03/10 08:51:00;;;;;;;3.08;0.40;;;8.10;99.90;;;;;;5149508;27;20031;-68
2023/03/10 08:53:26;;;;;;;1.23;0.50;;;8.30;99.90;;;;;;5148727;27;20377;-68
2023/03/10 08:55:51;;;;;;;1.30;0.43;;;8.70;99.90;;;;;;5154023;27;20105;-68
2023/03/10 08:58:17;;;;;;;3.47;0.75;;;9.00;99.90;;;;;;5152332;27;20027;-69
2023/03/10 09:00:43;;;;;;;3.35;0.50;;;9.20;99.90;;;;;;5151968;27;20269;-69
2023/03/10 09:03:10;;;;;;;0.98;0.52;;;9.20;99.90;;;;;;5154303;27;20105;-69
2023/03/10 09:05:36;;;;;;;1.23;0.45;;;9.10;99.90;;;;;;5152284;27;20038;-67
2023/03/10 09:08:02;;;;;;;0.85;0.43;;;9.00;99.90;;;;;;5139697;27;20027;-69
2023/03/10 09:10:28;;;;;;;1.58;0.40;;;9.00;99.90;;;;;;5152818;27;20023;-70
2023/03/10 09:12:54;;;;;;;3.30;0.82;;;9.00;99.90;;;;;;5147718;27;20034;-70
2023/03/10 09:15:20;;;;;;;1.73;0.57;;;9.20;99.90;;;;;;5146690;27;20441;-70
2023/03/10 09:17:46;;;;;;;1.50;0.60;;;9.30;99.90;;;;;;5144683;27;20023;-69
2023/03/10 09:20:14;;;;;;;8.55;1.17;;;9.60;99.90;;;;;;5144390;27;20026;-69
2023/03/10 09:22:40;;;;;;;2.90;0.77;;;9.80;99.90;;;;;;5149798;27;20027;-69
2023/03/10 09:25:06;;;;;;;2.42;0.68;;;10.00;99.90;;;;;;5144146;27;20058;-69
2023/03/10 09:27:32;;;;;;;2.08;0.80;;;10.20;99.90;;;;;;5148232;27;20031;-68
2023/03/10 09:29:57;;;;;;;2.38;0.57;;;10.30;99.90;;;;;;5144146;27;20548;-69
2023/03/10 09:32:23;;;;;;;2.28;0.57;;;10.50;99.90;;;;;;5146043;27;20075;-69
2023/03/10 09:34:49;;;;;;;1.77;1.15;;;10.70;99.90;;;;;;5143803;27;20049;-69
2023/03/10 09:37:14;;;;;;;2.97;0.60;;;11.00;99.90;;;;;;5145259;27;20058;-69
2023/03/10 09:39:40;;;;;;;4.85;1.00;;;11.10;99.90;;;;;;5151627;27;20034;-69
2023/03/10 09:42:20;;;;;;;2.00;0.80;;;11.20;99.90;;;;;;5143486;27;20536;-69
2023/03/10 09:44:46;;;;;;;;;;;11.30;99.90;;;;;;5150940;27;20079;-68
2023/03/10 09:47:20;;;;;;;1.35;0.50;;;11.40;99.90;;;;;;5149331;27;20006;-68
2023/03/10 09:50:12;;;;;;;2.13;0.90;;;11.50;99.90;;;;;;5143187;27;20509;-68
2023/03/10 09:52:51;;;;;;;1.73;0.68;;;11.40;99.90;;;;;;5142380;27;20031;-68
2023/03/10 09:55:32;;;;;;;1.80;0.50;;;11.40;99.90;;;;;;5145123;27;20079;-70
2023/03/10 09:57:58;;;;;;;1.98;0.50;;;11.50;99.90;;;;;;5138383;27;21865;-71
2023/03/10 10:00:36;;;;;;;3.65;0.70;;;11.50;99.90;;;;;;5147165;27;20061;-67
2023/03/10 10:03:16;;;;;;;3.08;0.85;;;11.60;99.90;;;;;;5144215;27;20034;-68
2023/03/10 10:05:43;;;;;;;3.03;0.70;;;11.60;99.90;;;;;;5152979;27;20054;-69
2023/03/10 10:08:19;;;;;;;4.70;0.77;;;11.60;99.90;;;;;;5152787;27;20029;-71
2023/03/10 10:10:48;;;;;;;3.90;0.90;;;11.80;99.90;;;;;;5117786;27;20018;-69
2023/03/10 10:13:15;;;;;;;4.13;0.68;;;11.80;99.90;;;;;;5152833;27;20038;-69
2023/03/10 10:15:47;;;;;;;2.17;0.82;;;11.80;99.90;;;;;;5151516;27;20031;-69
2023/03/10 10:18:38;;;;;;;3.13;0.68;;;11.90;99.90;;;;;;5150735;27;20139;-69
2023/03/10 10:21:21;;;;;;;3.35;0.60;;;11.90;99.90;;;;;;5145923;27;20142;-69
2023/03/10 10:23:49;;;;;;;5.03;0.68;;;12.00;99.90;;;;;;5151814;27;20045;-69
2023/03/10 10:26:20;;;;;;;2.70;0.68;;;11.90;99.90;;;;;;5152179;27;20022;-69
2023/03/10 10:28:52;;;;;;;1.85;0.50;;;11.80;99.90;;;;;;5152344;27;20023;-69
2023/03/10 10:31:21;;;;;;;2.28;0.52;;;11.60;99.90;;;;;;5150866;27;20026;-71
2023/03/10 10:34:17;;;;;;;1.45;0.40;;;11.50;99.90;;;;;;5152338;27;20038;-69
2023/03/10 10:36:50;;;;;;;2.80;0.80;;;11.60;99.90;;;;;;5143363;27;20033;-69
2023/03/10 10:39:36;;;;;;;3.83;0.52;;;11.60;99.90;;;;;;5150718;27;20023;-70
2023/03/10 10:42:18;;;;;;;2.30;0.60;;;11.60;99.90;;;;;;5151181;27;20370;-70
2023/03/10 10:44:44;;;;;;;3.53;0.63;;;11.50;99.90;;;;;;5144939;27;20114;-69
2023/03/10 10:47:32;;;;;;;3.63;0.80;;;11.30;99.90;;;;;;5128818;27;20381;-69
2023/03/10 10:50:21;;;;;;;2.15;0.73;;;11.20;99.90;;;;;;5151322;27;20083;-69
2023/03/10 10:52:49;;;;;;;1.97;0.87;;;11.10;99.90;;;;;;5136278;27;20079;-70
2023/03/10 10:55:33;;;;;;;6.80;1.02;;;11.10;99.90;;;;;;5148492;27;20027;-70
2023/03/10 10:58:23;;;;;;;4.30;0.70;;;11.20;99.90;;;;;;5128119;27;20063;-72
2023/03/10 11:01:00;;;;;;;2.08;1.00;;;11.40;99.90;;;;;;5135841;27;20478;-69
2023/03/10 11:03:33;;;;;;;5.82;0.95;;;11.50;99.90;;;;;;5151517;27;20106;-69
2023/03/10 11:05:59;;;;;;;2.05;0.73;;;11.50;99.90;;;;;;5145764;27;20427;-69
2023/03/10 11:08:33;;;;;;;5.28;0.90;;;11.40;99.90;;;;;;5150253;27;20023;-71
2023/03/10 11:11:16;;;;;;;3.78;1.10;;;11.40;99.90;;;;;;5151745;27;20030;-72
2023/03/10 11:14:15;;;;;;;4.18;1.00;;;11.40;99.90;;;;;;5144090;27;20117;-72
2023/03/10 11:17:21;;;;;;;2.03;0.60;;;11.50;99.90;;;;;;5135658;27;20031;-74
2023/03/10 11:20:07;;;;;;;2.00;0.55;;;11.60;99.90;;;;;;5140490;27;20027;-73
2023/03/10 11:22:35;;;;;;;1.45;0.55;;;11.60;99.90;;;;;;5142560;27;20027;-73
2023/03/10 11:25:04;;;;;;;2.80;0.70;;;11.70;99.90;;;;;;5140038;27;20027;-73
2023/03/10 11:27:59;;;;;;;2.97;0.93;;;11.90;99.90;;;;;;5150959;27;20031;-74
2023/03/10 11:30:34;;;;;;;2.80;0.70;;;11.90;99.90;;;;;;5113460;27;20042;-73
2023/03/10 11:33:20;;;;;;;3.35;0.75;;;12.00;99.90;;;;;;5151788;27;20112;-74
2023/03/10 11:36:27;;;;;;;2.88;0.98;;;12.00;99.90;;;;;;5151428;27;20473;-77
2023/03/10 11:39:10;;;;;;;2.08;0.60;;;11.90;99.90;;;;;;5144928;27;20106;-78
2023/03/10 11:41:42;;;;;;;3.40;0.60;;;11.80;99.90;;;;;;5157744;27;20019;-77
2023/03/10 11:44:22;;;;;;;3.70;0.80;;;11.80;99.90;;;;;;5156040;27;20034;-75
2023/03/10 11:46:57;;;;;;;1.73;0.73;;;11.70;99.90;;;;;;5148113;27;20039;-74
2023/03/10 11:49:26;;;;;;;3.67;1.15;;;11.80;99.90;;;;;;5154832;27;20035;-75
2023/03/10 11:52:04;;;;;;;4.22;0.70;;;11.70;99.90;;;;;;5155505;27;20396;-75
2023/03/10 11:54:41;;;;;;;2.00;0.50;;;11.70;99.90;;;;;;5153615;27;20428;-71
2023/03/10 11:57:19;;;;;;;4.65;0.70;;;11.60;99.90;;;;;;5149407;27;20049;-72
2023/03/10 12:00:01;;;;;;;2.53;0.70;;;11.40;99.90;;;;;;5145180;27;20035;-73
2023/03/10 12:02:39;;;;;;;3.60;1.20;;;11.20;99.90;;;;;;5144791;27;20148;-72
2023/03/10 12:05:16;;;;;;;3.42;0.90;;;11.20;99.90;;;;;;5143370;27;20445;-72
2023/03/10 12:07:47;;;;;;;1.80;0.52;;;11.30;99.90;;;;;;5153828;27;20468;-74
2023/03/10 12:10:17;;;;;;;3.25;0.70;;;11.40;99.90;;;;;;5148875;27;20075;-73
2023/03/10 12:12:45;;;;;;;1.90;0.55;;;11.30;99.90;;;;;;5148011;27;20072;-73
2023/03/10 12:15:19;;;;;;;1.60;0.68;;;11.30;99.90;;;;;;5145173;27;20080;-71
2023/03/10 12:17:47;;;;;;;15.73;2.38;;;11.40;99.90;;;;;;5147601;27;20022;-69
2023/03/10 12:20:16;;;;;;;4.25;0.75;;;11.60;99.90;;;;;;5153715;27;20445;-71
2023/03/10 12:22:49;;;;;;;1.65;0.50;;;11.80;99.90;;;;;;5152628;27;20083;-73
2023/03/10 12:25:27;;;;;;;1.48;0.57;;;12.10;99.90;;;;;;5149698;27;20062;-70
2023/03/10 12:28:14;;;;;;;0.98;0.30;;;12.40;99.90;;;;;;5156704;27;20354;-73
2023/03/10 12:30:49;;;;;;;1.55;0.60;;;12.60;99.90;;;;;;5140113;27;20149;-72
2023/03/10 12:33:42;;;;;;;1.85;0.60;;;12.80;99.90;;;;;;5149923;27;20030;-75
2023/03/10 12:36:14;;;;;;;1.35;0.40;;;12.80;99.90;;;;;;5136263;27;21770;-72
2023/03/10 12:38:43;;;;;;;1.17;0.40;;;12.90;99.90;;;;;;5145887;27;20680;-72
2023/03/10 12:41:09;;;;;;;1.02;0.55;;;12.90;99.90;;;;;;5148995;27;20452;-75
2023/03/10 12:43:56;;;;;;;2.45;0.45;;;12.90;99.90;;;;;;5148796;27;20122;-73
2023/03/10 12:46:27;;;;;;;0.60;0.40;;;12.80;99.90;;;;;;5124978;27;20493;-74
2023/03/10 12:49:05;;;;;;;1.77;0.28;;;12.60;99.90;;;;;;5135425;27;20018;-74
2023/03/10 12:51:39;;;;;;;1.13;0.40;;;12.60;99.90;;;;;;5153037;27;20026;-75
2023/03/10 12:54:35;;;;;;;0.85;0.30;;;12.60;99.90;;;;;;5154215;27;20111;-74
2023/03/10 12:57:31;;;;;;;1.27;0.43;;;12.70;99.90;;;;;;5124055;27;20042;-73
2023/03/10 13:00:05;;;;;;;0.88;0.40;;;12.80;99.90;;;;;;5135056;27;20031;-73
2023/03/10 13:02:45;;;;;;;0.52;0.30;;;12.60;99.90;;;;;;5145446;27;20027;-74
2023/03/10 13:05:28;;;;;;;2.77;0.53;;;12.50;99.90;;;;;;5149765;27;20038;-76